sensor_id;sensor_type;location;lat;lon;timestamp;pressure;altitude;pressure_sealevel;temperature;humidity
13867;BME280;7003;46.982;15.248;2022-09-24T00:02:14;97212.22;;;6.64;100.00
13867;BME280;7003;46.982;15.248;2022-09-24T00:04:44;97209.69;;;6.58;100.00
13867;BME280;7003;46.982;15.248;2022-09-24T00:07:11;97216.31;;;6.70;100.00
13867;BME280;7003;46.982;15.248;2022-09-24T00:09:40;97215.63;;;6.78;100.00
13867;BME280;7003;46.982;15.248;2022-09-24T00:12:07;97211.75;;;6.62;100.00
13867;BME280;7003;46.982;15.248;2022-09-24T00:14:40;97215.09;;;6.53;100.00
13867;BME280;7003;46.982;15.248;2022-09-24T00:17:10;97204.34;;;6.36;100.00
13867;BME280;7003;46.982;15.248;2022-09-24T00:19:39;97205.41;;;6.35;100.00
13867;BME280;7003;46.982;15.248;2022-09-24T00:22:08;97200.03;;;6.40;100.00
13867;BME280;7003;46.982;15.248;2022-09-24T00:24:37;97204.13;;;6.46;100.00
13867;BME280;7003;46.982;15.248;2022-09-24T00:27:23;97197.69;;;6.39;100.00
13867;BME280;7003;46.982;15.248;2022-09-24T00:29:52;97202.78;;;6.35;100.00
13867;BME280;7003;46.982;15.248;2022-09-24T00:32:20;97199.84;;;6.23;100.00
13867;BME280;7003;46.982;15.248;2022-09-24T00:34:51;97202.88;;;6.30;100.00
13867;BME280;7003;46.982;15.248;2022-09-24T00:37:20;97192.72;;;5.96;100.00
13867;BME280;7003;46.982;15.248;2022-09-24T00:39:47;97190.19;;;6.05;100.00
13867;BME280;7003;46.982;15.248;2022-09-24T00:42:18;97188.41;;;5.87;100.00
13867;BME280;7003;46.982;15.248;2022-09-24T00:44:49;97189.91;;;5.93;100.00
13867;BME280;7003;46.982;15.248;2022-09-24T00:47:27;97187.50;;;5.77;100.00
13867;BME280;7003;46.982;15.248;2022-09-24T00:50:03;97192.00;;;5.77;100.00
13867;BME280;7003;46.982;15.248;2022-09-24T00:52:40;97190.16;;;5.77;100.00
13867;BME280;7003;46.982;15.248;2022-09-24T00:55:12;97179.69;;;5.72;100.00
13867;BME280;7003;46.982;15.248;2022-09-24T00:57:41;97178.72;;;5.82;100.00
13867;BME280;7003;46.982;15.248;2022-09-24T01:00:09;97178.91;;;5.72;100.00
13867;BME280;7003;46.982;15.248;2022-09-24T01:02:38;97180.16;;;5.74;100.00
13867;BME280;7003;46.982;15.248;2022-09-24T01:05:15;97172.25;;;5.74;100.00
13867;BME280;7003;46.982;15.248;2022-09-24T01:07:44;97169.16;;;5.72;100.00
13867;BME280;7003;46.982;15.248;2022-09-24T01:10:13;97170.72;;;5.87;100.00
13867;BME280;7003;46.982;15.248;2022-09-24T01:13:10;97167.97;;;5.78;100.00
13867;BME280;7003;46.982;15.248;2022-09-24T01:15:44;97168.16;;;5.82;100.00
13867;BME280;7003;46.982;15.248;2022-09-24T01:18:19;97161.00;;;5.82;100.00
13867;BME280;7003;46.982;15.248;2022-09-24T01:21:03;97159.84;;;5.75;100.00
13867;BME280;7003;46.982;15.248;2022-09-24T01:24:17;97164.84;;;5.76;100.00
13867;BME280;7003;46.982;15.248;2022-09-24T01:26:56;97158.94;;;5.66;100.00
13867;BME280;7003;46.982;15.248;2022-09-24T01:29:38;97154.78;;;5.78;100.00
13867;BME280;7003;46.982;15.248;2022-09-24T01:32:14;97154.56;;;5.61;100.00
13867;BME280;7003;46.982;15.248;2022-09-24T01:34:49;97147.31;;;5.67;100.00
13867;BME280;7003;46.982;15.248;2022-09-24T01:37:22;97143.81;;;5.71;100.00
13867;BME280;7003;46.982;15.248;2022-09-24T01:39:52;97135.91;;;5.71;100.00
13867;BME280;7003;46.982;15.248;2022-09-24T01:42:26;97144.91;;;5.70;100.00
13867;BME280;7003;46.982;15.248;2022-09-24T01:44:58;97135.88;;;5.58;100.00
13867;BME280;7003;46.982;15.248;2022-09-24T01:47:30;97138.00;;;5.42;100.00
13867;BME280;7003;46.982;15.248;2022-09-24T01:49:57;97140.56;;;5.33;100.00
13867;BME280;7003;46.982;15.248;2022-09-24T01:52:30;97145.84;;;5.33;100.00
13867;BME280;7003;46.982;15.248;2022-09-24T01:55:05;97138.72;;;5.48;100.00
13867;BME280;7003;46.982;15.248;2022-09-24T01:57:37;97141.94;;;5.58;100.00
13867;BME280;7003;46.982;15.248;2022-09-24T02:00:13;97136.28;;;5.51;100.00
13867;BME280;7003;46.982;15.248;2022-09-24T02:02:44;97130.59;;;5.44;100.00
13867;BME280;7003;46.982;15.248;2022-09-24T02:05:18;97127.09;;;5.49;100.00
13867;BME280;7003;46.982;15.248;2022-09-24T02:07:54;97132.66;;;5.47;100.00
13867;BME280;7003;46.982;15.248;2022-09-24T02:10:28;97127.69;;;5.59;100.00
13867;BME280;7003;46.982;15.248;2022-09-24T02:13:03;97128.84;;;5.53;100.00
13867;BME280;7003;46.982;15.248;2022-09-24T02:15:34;97130.03;;;5.47;100.00
13867;BME280;7003;46.982;15.248;2022-09-24T02:18:08;97131.38;;;5.31;100.00
13867;BME280;7003;46.982;15.248;2022-09-24T02:20:38;97118.34;;;5.21;100.00
13867;BME280;7003;46.982;15.248;2022-09-24T02:23:12;97112.41;;;5.29;100.00
13867;BME280;7003;46.982;15.248;2022-09-24T02:25:48;97113.59;;;5.23;100.00
13867;BME280;7003;46.982;15.248;2022-09-24T02:28:19;97117.00;;;5.37;100.00
13867;BME280;7003;46.982;15.248;2022-09-24T02:30:53;97116.81;;;5.33;100.00
13867;BME280;7003;46.982;15.248;2022-09-24T02:33:23;97110.78;;;5.33;100.00
13867;BME280;7003;46.982;15.248;2022-09-24T02:36:11;97108.97;;;5.15;100.00
13867;BME280;7003;46.982;15.248;2022-09-24T02:38:41;97103.88;;;5.04;100.00
13867;BME280;7003;46.982;15.248;2022-09-24T02:41:11;97102.50;;;5.07;100.00
13867;BME280;7003;46.982;15.248;2022-09-24T02:43:39;97101.94;;;5.10;100.00
13867;BME280;7003;46.982;15.248;2022-09-24T02:46:12;97092.09;;;5.16;100.00
13867;BME280;7003;46.982;15.248;2022-09-24T02:48:39;97093.94;;;5.15;100.00
13867;BME280;7003;46.982;15.248;2022-09-24T02:51:07;97095.56;;;5.11;100.00
13867;BME280;7003;46.982;15.248;2022-09-24T02:53:34;97096.06;;;5.13;100.00
13867;BME280;7003;46.982;15.248;2022-09-24T02:56:01;97101.22;;;4.91;100.00
13867;BME280;7003;46.982;15.248;2022-09-24T02:58:29;97090.63;;;4.77;100.00
13867;BME280;7003;46.982;15.248;2022-09-24T03:00:56;97084.47;;;4.82;100.00
13867;BME280;7003;46.982;15.248;2022-09-24T03:03:25;97096.16;;;4.94;100.00
13867;BME280;7003;46.982;15.248;2022-09-24T03:05:53;97095.16;;;4.90;100.00
13867;BME280;7003;46.982;15.248;2022-09-24T03:08:20;97086.75;;;4.88;100.00
13867;BME280;7003;46.982;15.248;2022-09-24T03:10:49;97085.38;;;4.77;100.00
13867;BME280;7003;46.982;15.248;2022-09-24T03:13:17;97094.78;;;4.97;100.00
13867;BME280;7003;46.982;15.248;2022-09-24T03:15:45;97090.63;;;5.10;100.00
13867;BME280;7003;46.982;15.248;2022-09-24T03:18:12;97079.75;;;4.97;100.00
13867;BME280;7003;46.982;15.248;2022-09-24T03:20:53;97090.66;;;4.58;100.00
13867;BME280;7003;46.982;15.248;2022-09-24T03:23:20;97080.50;;;4.84;100.00
13867;BME280;7003;46.982;15.248;2022-09-24T03:25:47;97081.06;;;4.81;100.00
13867;BME280;7003;46.982;15.248;2022-09-24T03:28:16;97075.38;;;4.74;100.00
13867;BME280;7003;46.982;15.248;2022-09-24T03:30:44;97070.53;;;4.81;100.00
13867;BME280;7003;46.982;15.248;2022-09-24T03:33:32;97073.09;;;4.86;100.00
13867;BME280;7003;46.982;15.248;2022-09-24T03:36:04;97065.66;;;4.88;100.00
13867;BME280;7003;46.982;15.248;2022-09-24T03:38:33;97067.44;;;4.93;100.00
13867;BME280;7003;46.982;15.248;2022-09-24T03:41:00;97076.94;;;5.08;100.00
13867;BME280;7003;46.982;15.248;2022-09-24T03:43:27;97070.00;;;5.12;100.00
13867;BME280;7003;46.982;15.248;2022-09-24T03:45:55;97071.25;;;5.00;100.00
13867;BME280;7003;46.982;15.248;2022-09-24T03:48:25;97063.03;;;4.88;100.00
13867;BME280;7003;46.982;15.248;2022-09-24T03:50:55;97061.56;;;4.82;100.00
13867;BME280;7003;46.982;15.248;2022-09-24T03:53:26;97053.13;;;4.67;100.00
13867;BME280;7003;46.982;15.248;2022-09-24T03:55:56;97050.50;;;4.80;100.00
13867;BME280;7003;46.982;15.248;2022-09-24T03:58:24;97050.69;;;5.02;100.00
13867;BME280;7003;46.982;15.248;2022-09-24T04:00:52;97060.03;;;4.95;100.00
13867;BME280;7003;46.982;15.248;2022-09-24T04:03:21;97050.88;;;5.20;100.00
13867;BME280;7003;46.982;15.248;2022-09-24T04:05:48;97050.00;;;5.11;100.00
13867;BME280;7003;46.982;15.248;2022-09-24T04:08:19;97052.78;;;4.87;100.00
13867;BME280;7003;46.982;15.248;2022-09-24T04:10:50;97055.72;;;4.99;100.00
13867;BME280;7003;46.982;15.248;2022-09-24T04:13:17;97050.44;;;4.85;100.00
13867;BME280;7003;46.982;15.248;2022-09-24T04:15:45;97051.25;;;4.99;100.00
13867;BME280;7003;46.982;15.248;2022-09-24T04:18:12;97043.78;;;4.88;100.00
13867;BME280;7003;46.982;15.248;2022-09-24T04:20:39;97047.72;;;4.90;100.00
13867;BME280;7003;46.982;15.248;2022-09-24T04:23:09;97039.13;;;4.85;100.00
13867;BME280;7003;46.982;15.248;2022-09-24T04:25:37;97041.25;;;4.83;100.00
13867;BME280;7003;46.982;15.248;2022-09-24T04:28:09;97049.06;;;4.88;100.00
13867;BME280;7003;46.982;15.248;2022-09-24T04:30:39;97049.38;;;4.86;100.00
13867;BME280;7003;46.982;15.248;2022-09-24T04:33:10;97046.53;;;4.96;100.00
13867;BME280;7003;46.982;15.248;2022-09-24T04:35:37;97037.16;;;4.90;100.00
13867;BME280;7003;46.982;15.248;2022-09-24T04:38:04;97035.47;;;4.81;100.00
13867;BME280;7003;46.982;15.248;2022-09-24T04:40:34;97038.97;;;5.09;100.00
13867;BME280;7003;46.982;15.248;2022-09-24T04:43:02;97040.19;;;4.97;100.00
13867;BME280;7003;46.982;15.248;2022-09-24T04:45:36;97043.84;;;5.01;100.00
13867;BME280;7003;46.982;15.248;2022-09-24T04:48:06;97030.53;;;4.79;100.00
13867;BME280;7003;46.982;15.248;2022-09-24T04:50:36;97029.41;;;4.67;100.00
13867;BME280;7003;46.982;15.248;2022-09-24T04:53:06;97026.31;;;4.78;100.00
13867;BME280;7003;46.982;15.248;2022-09-24T04:55:34;97038.06;;;4.99;100.00
13867;BME280;7003;46.982;15.248;2022-09-24T04:58:04;97035.81;;;5.07;100.00
13867;BME280;7003;46.982;15.248;2022-09-24T05:00:33;97035.44;;;4.99;100.00
13867;BME280;7003;46.982;15.248;2022-09-24T05:03:03;97033.91;;;5.26;100.00
13867;BME280;7003;46.982;15.248;2022-09-24T05:05:35;97032.13;;;5.35;100.00
13867;BME280;7003;46.982;15.248;2022-09-24T05:08:05;97032.63;;;5.37;100.00
13867;BME280;7003;46.982;15.248;2022-09-24T05:10:33;97036.59;;;5.34;100.00
13867;BME280;7003;46.982;15.248;2022-09-24T05:13:03;97039.53;;;5.19;100.00
13867;BME280;7003;46.982;15.248;2022-09-24T05:15:31;97047.16;;;5.21;100.00
13867;BME280;7003;46.982;15.248;2022-09-24T05:18:04;97035.94;;;5.15;100.00
13867;BME280;7003;46.982;15.248;2022-09-24T05:20:32;97033.09;;;5.12;100.00
13867;BME280;7003;46.982;15.248;2022-09-24T05:23:03;97041.00;;;5.12;100.00
13867;BME280;7003;46.982;15.248;2022-09-24T05:25:33;97047.38;;;5.24;100.00
13867;BME280;7003;46.982;15.248;2022-09-24T05:28:23;97053.03;;;5.18;100.00
13867;BME280;7003;46.982;15.248;2022-09-24T05:30:58;97058.69;;;5.25;100.00
13867;BME280;7003;46.982;15.248;2022-09-24T05:33:32;97059.28;;;5.22;100.00
13867;BME280;7003;46.982;15.248;2022-09-24T05:36:00;97057.81;;;5.43;100.00
13867;BME280;7003;46.982;15.248;2022-09-24T05:38:29;97058.69;;;5.52;100.00
13867;BME280;7003;46.982;15.248;2022-09-24T05:41:00;97051.66;;;5.61;100.00
13867;BME280;7003;46.982;15.248;2022-09-24T05:43:30;97058.31;;;5.45;100.00
13867;BME280;7003;46.982;15.248;2022-09-24T05:46:00;97064.75;;;5.53;100.00
13867;BME280;7003;46.982;15.248;2022-09-24T05:48:29;97075.38;;;5.75;100.00
13867;BME280;7003;46.982;15.248;2022-09-24T05:51:02;97073.44;;;5.94;100.00
13867;BME280;7003;46.982;15.248;2022-09-24T05:53:32;97065.53;;;5.94;100.00
13867;BME280;7003;46.982;15.248;2022-09-24T05:56:02;97057.88;;;6.06;100.00
13867;BME280;7003;46.982;15.248;2022-09-24T05:58:30;97065.50;;;6.08;100.00
13867;BME280;7003;46.982;15.248;2022-09-24T06:00:58;97064.88;;;6.25;100.00
13867;BME280;7003;46.982;15.248;2022-09-24T06:03:27;97071.06;;;6.42;100.00
13867;BME280;7003;46.982;15.248;2022-09-24T06:05:57;97069.81;;;6.62;100.00
13867;BME280;7003;46.982;15.248;2022-09-24T06:08:30;97063.50;;;6.72;100.00
13867;BME280;7003;46.982;15.248;2022-09-24T06:10:58;97058.22;;;6.72;100.00
13867;BME280;7003;46.982;15.248;2022-09-24T06:13:28;97051.75;;;6.86;100.00
13867;BME280;7003;46.982;15.248;2022-09-24T06:16:03;97058.34;;;6.97;100.00
13867;BME280;7003;46.982;15.248;2022-09-24T06:18:35;97057.44;;;7.33;100.00
13867;BME280;7003;46.982;15.248;2022-09-24T06:21:07;97051.31;;;7.63;100.00
13867;BME280;7003;46.982;15.248;2022-09-24T06:23:38;97043.56;;;7.93;100.00
13867;BME280;7003;46.982;15.248;2022-09-24T06:26:10;97053.72;;;8.17;100.00
13867;BME280;7003;46.982;15.248;2022-09-24T06:28:41;97040.31;;;8.22;100.00
13867;BME280;7003;46.982;15.248;2022-09-24T06:31:12;97053.44;;;8.53;100.00
13867;BME280;7003;46.982;15.248;2022-09-24T06:33:40;97058.59;;;8.58;100.00
13867;BME280;7003;46.982;15.248;2022-09-24T06:36:08;97056.38;;;8.68;100.00
13867;BME280;7003;46.982;15.248;2022-09-24T06:38:40;97059.78;;;8.95;100.00
13867;BME280;7003;46.982;15.248;2022-09-24T06:41:08;97051.63;;;9.00;100.00
13867;BME280;7003;46.982;15.248;2022-09-24T06:43:36;97044.25;;;9.14;100.00
13867;BME280;7003;46.982;15.248;2022-09-24T06:46:05;97044.94;;;9.40;100.00
13867;BME280;7003;46.982;15.248;2022-09-24T06:48:33;97048.00;;;9.59;100.00
13867;BME280;7003;46.982;15.248;2022-09-24T06:51:04;97047.06;;;9.55;100.00
13867;BME280;7003;46.982;15.248;2022-09-24T06:53:33;97037.22;;;9.56;100.00
13867;BME280;7003;46.982;15.248;2022-09-24T06:56:05;97041.34;;;9.74;100.00
13867;BME280;7003;46.982;15.248;2022-09-24T06:58:33;97037.34;;;9.89;100.00
13867;BME280;7003;46.982;15.248;2022-09-24T07:01:02;97038.25;;;9.93;100.00
13867;BME280;7003;46.982;15.248;2022-09-24T07:03:31;97043.44;;;10.10;100.00
13867;BME280;7003;46.982;15.248;2022-09-24T07:06:01;97043.03;;;10.29;100.00
13867;BME280;7003;46.982;15.248;2022-09-24T07:08:32;97037.69;;;10.50;100.00
13867;BME280;7003;46.982;15.248;2022-09-24T07:11:02;97031.28;;;10.84;100.00
13867;BME280;7003;46.982;15.248;2022-09-24T07:13:32;97037.72;;;10.95;100.00
13867;BME280;7003;46.982;15.248;2022-09-24T07:15:59;97034.66;;;11.17;100.00
13867;BME280;7003;46.982;15.248;2022-09-24T07:18:27;97027.91;;;11.32;100.00
13867;BME280;7003;46.982;15.248;2022-09-24T07:20:58;97033.91;;;11.41;100.00
13867;BME280;7003;46.982;15.248;2022-09-24T07:23:30;97026.16;;;11.60;100.00
13867;BME280;7003;46.982;15.248;2022-09-24T07:25:58;97031.59;;;11.88;100.00
13867;BME280;7003;46.982;15.248;2022-09-24T07:28:35;97036.88;;;12.00;100.00
13867;BME280;7003;46.982;15.248;2022-09-24T07:31:06;97033.66;;;12.07;100.00
13867;BME280;7003;46.982;15.248;2022-09-24T07:33:37;97028.59;;;12.29;100.00
13867;BME280;7003;46.982;15.248;2022-09-24T07:36:07;97028.53;;;12.54;100.00
13867;BME280;7003;46.982;15.248;2022-09-24T07:38:37;97035.25;;;12.63;100.00
13867;BME280;7003;46.982;15.248;2022-09-24T07:41:06;97043.28;;;12.79;100.00
13867;BME280;7003;46.982;15.248;2022-09-24T07:43:37;97039.19;;;12.97;100.00
13867;BME280;7003;46.982;15.248;2022-09-24T07:46:04;97044.09;;;13.23;100.00
13867;BME280;7003;46.982;15.248;2022-09-24T07:48:32;97039.53;;;13.39;100.00
13867;BME280;7003;46.982;15.248;2022-09-24T07:51:01;97039.53;;;13.39;100.00
13867;BME280;7003;46.982;15.248;2022-09-24T07:53:33;97042.94;;;13.71;100.00
13867;BME280;7003;46.982;15.248;2022-09-24T07:56:03;97042.50;;;13.85;100.00
13867;BME280;7003;46.982;15.248;2022-09-24T07:58:32;97041.31;;;14.02;100.00
13867;BME280;7003;46.982;15.248;2022-09-24T08:01:05;97039.22;;;14.11;100.00
13867;BME280;7003;46.982;15.248;2022-09-24T08:03:32;97042.97;;;14.25;100.00
13867;BME280;7003;46.982;15.248;2022-09-24T08:06:01;97038.81;;;14.63;100.00
13867;BME280;7003;46.982;15.248;2022-09-24T08:08:30;97041.19;;;14.68;100.00
13867;BME280;7003;46.982;15.248;2022-09-24T08:11:06;97035.31;;;14.82;100.00
13867;BME280;7003;46.982;15.248;2022-09-24T08:13:34;97030.16;;;14.92;100.00
13867;BME280;7003;46.982;15.248;2022-09-24T08:16:04;97035.41;;;14.66;100.00
13867;BME280;7003;46.982;15.248;2022-09-24T08:18:33;97031.53;;;14.63;100.00
13867;BME280;7003;46.982;15.248;2022-09-24T08:21:04;97028.50;;;15.07;100.00
13867;BME280;7003;46.982;15.248;2022-09-24T08:23:35;97025.13;;;15.33;100.00
13867;BME280;7003;46.982;15.248;2022-09-24T08:26:04;97022.69;;;15.01;100.00
13867;BME280;7003;46.982;15.248;2022-09-24T08:28:35;97022.59;;;15.44;100.00
13867;BME280;7003;46.982;15.248;2022-09-24T08:31:05;97019.50;;;15.91;100.00
13867;BME280;7003;46.982;15.248;2022-09-24T08:33:35;97019.22;;;16.26;100.00
13867;BME280;7003;46.982;15.248;2022-09-24T08:36:07;97019.56;;;16.54;100.00
13867;BME280;7003;46.982;15.248;2022-09-24T08:38:36;97021.91;;;16.59;100.00
13867;BME280;7003;46.982;15.248;2022-09-24T08:41:22;97019.81;;;16.72;100.00
13867;BME280;7003;46.982;15.248;2022-09-24T08:44:01;97019.91;;;16.82;100.00
13867;BME280;7003;46.982;15.248;2022-09-24T08:46:35;97011.00;;;16.75;100.00
13867;BME280;7003;46.982;15.248;2022-09-24T08:49:28;97020.16;;;16.70;100.00
13867;BME280;7003;46.982;15.248;2022-09-24T08:54:46;97014.44;;;16.72;100.00
13867;BME280;7003;46.982;15.248;2022-09-24T08:57:17;97003.41;;;16.50;100.00
13867;BME280;7003;46.982;15.248;2022-09-24T08:59:49;97009.13;;;16.15;100.00
13867;BME280;7003;46.982;15.248;2022-09-24T09:02:33;97008.72;;;16.13;100.00
13867;BME280;7003;46.982;15.248;2022-09-24T09:05:13;97006.94;;;15.95;100.00
13867;BME280;7003;46.982;15.248;2022-09-24T09:07:51;97006.34;;;16.08;100.00
13867;BME280;7003;46.982;15.248;2022-09-24T09:10:28;97012.34;;;16.28;100.00
13867;BME280;7003;46.982;15.248;2022-09-24T09:13:03;97005.84;;;16.29;100.00
13867;BME280;7003;46.982;15.248;2022-09-24T09:15:36;97000.63;;;16.10;100.00
13867;BME280;7003;46.982;15.248;2022-09-24T09:18:13;96999.94;;;15.87;100.00
13867;BME280;7003;46.982;15.248;2022-09-24T09:20:44;96996.72;;;15.28;100.00
13867;BME280;7003;46.982;15.248;2022-09-24T09:23:18;97009.41;;;15.31;100.00
13867;BME280;7003;46.982;15.248;2022-09-24T09:25:50;96997.38;;;15.22;100.00
13867;BME280;7003;46.982;15.248;2022-09-24T09:28:21;96993.38;;;15.35;100.00
13867;BME280;7003;46.982;15.248;2022-09-24T09:30:59;97000.44;;;15.69;100.00
13867;BME280;7003;46.982;15.248;2022-09-24T09:33:42;96997.66;;;15.62;100.00
13867;BME280;7003;46.982;15.248;2022-09-24T09:36:27;96996.66;;;15.74;100.00
13867;BME280;7003;46.982;15.248;2022-09-24T09:39:03;96996.25;;;16.28;100.00
13867;BME280;7003;46.982;15.248;2022-09-24T09:41:41;97004.34;;;16.02;100.00
13867;BME280;7003;46.982;15.248;2022-09-24T09:44:21;96997.84;;;16.33;100.00
13867;BME280;7003;46.982;15.248;2022-09-24T09:46:53;96999.09;;;16.72;100.00
13867;BME280;7003;46.982;15.248;2022-09-24T09:49:26;96992.31;;;16.85;100.00
13867;BME280;7003;46.982;15.248;2022-09-24T09:52:08;96996.09;;;16.81;100.00
13867;BME280;7003;46.982;15.248;2022-09-24T09:54:42;96995.88;;;17.41;100.00
13867;BME280;7003;46.982;15.248;2022-09-24T09:57:13;96985.38;;;17.28;100.00
13867;BME280;7003;46.982;15.248;2022-09-24T09:59:45;96980.56;;;17.52;100.00
13867;BME280;7003;46.982;15.248;2022-09-24T10:02:21;96972.34;;;17.82;100.00
13867;BME280;7003;46.982;15.248;2022-09-24T10:04:54;96973.75;;;18.34;100.00
13867;BME280;7003;46.982;15.248;2022-09-24T10:07:25;96972.38;;;17.85;100.00
13867;BME280;7003;46.982;15.248;2022-09-24T10:10:00;96969.34;;;17.97;100.00
13867;BME280;7003;46.982;15.248;2022-09-24T10:12:31;96969.47;;;18.22;100.00
13867;BME280;7003;46.982;15.248;2022-09-24T10:15:01;96961.19;;;18.73;100.00
13867;BME280;7003;46.982;15.248;2022-09-24T10:17:33;96959.66;;;18.87;100.00
13867;BME280;7003;46.982;15.248;2022-09-24T10:20:17;96964.28;;;19.36;97.10
13867;BME280;7003;46.982;15.248;2022-09-24T10:22:50;96955.09;;;19.51;83.99
13867;BME280;7003;46.982;15.248;2022-09-24T10:25:23;96957.78;;;19.47;92.22
13867;BME280;7003;46.982;15.248;2022-09-24T10:27:57;96961.19;;;19.87;83.17
13867;BME280;7003;46.982;15.248;2022-09-24T10:30:53;96957.38;;;19.74;78.81
13867;BME280;7003;46.982;15.248;2022-09-24T10:33:21;96956.06;;;20.17;76.14
13867;BME280;7003;46.982;15.248;2022-09-24T10:36:03;96965.84;;;19.72;72.03
13867;BME280;7003;46.982;15.248;2022-09-24T10:38:33;96958.94;;;19.50;74.55
13867;BME280;7003;46.982;15.248;2022-09-24T10:41:01;96953.91;;;19.45;83.34
13867;BME280;7003;46.982;15.248;2022-09-24T10:43:28;96952.72;;;18.75;74.42
13867;BME280;7003;46.982;15.248;2022-09-24T10:46:10;96948.50;;;18.84;79.58
13867;BME280;7003;46.982;15.248;2022-09-24T10:48:43;96947.72;;;19.44;79.44
13867;BME280;7003;46.982;15.248;2022-09-24T10:51:24;96948.16;;;19.57;74.88
13867;BME280;7003;46.982;15.248;2022-09-24T10:54:04;96949.22;;;19.95;77.22
13867;BME280;7003;46.982;15.248;2022-09-24T10:56:39;96942.59;;;20.07;71.16
13867;BME280;7003;46.982;15.248;2022-09-24T10:59:27;96938.34;;;20.09;68.45
13867;BME280;7003;46.982;15.248;2022-09-24T11:02:19;96934.91;;;20.05;68.57
13867;BME280;7003;46.982;15.248;2022-09-24T11:04:54;96934.56;;;19.96;69.73
13867;BME280;7003;46.982;15.248;2022-09-24T11:10:59;96943.50;;;19.40;66.97
13867;BME280;7003;46.982;15.248;2022-09-24T11:13:31;96944.28;;;19.22;73.27
13867;BME280;7003;46.982;15.248;2022-09-24T11:16:27;96945.06;;;19.48;74.03
13867;BME280;7003;46.982;15.248;2022-09-24T11:19:10;96936.94;;;19.51;69.67
13867;BME280;7003;46.982;15.248;2022-09-24T11:21:56;96934.25;;;19.73;68.96
13867;BME280;7003;46.982;15.248;2022-09-24T11:24:41;96936.56;;;19.39;69.31
13867;BME280;7003;46.982;15.248;2022-09-24T11:27:33;96945.03;;;19.51;73.51
13867;BME280;7003;46.982;15.248;2022-09-24T11:30:11;96936.09;;;19.93;68.18
13867;BME280;7003;46.982;15.248;2022-09-24T11:32:59;96936.13;;;19.83;70.33
13867;BME280;7003;46.982;15.248;2022-09-24T11:35:56;96923.47;;;19.51;69.70
13867;BME280;7003;46.982;15.248;2022-09-24T11:38:48;96923.75;;;19.96;74.48
13867;BME280;7003;46.982;15.248;2022-09-24T11:41:36;96929.53;;;19.91;71.62
13867;BME280;7003;46.982;15.248;2022-09-24T11:47:10;96929.84;;;20.18;68.33
13867;BME280;7003;46.982;15.248;2022-09-24T11:50:02;96926.88;;;19.84;66.90
13867;BME280;7003;46.982;15.248;2022-09-24T11:52:41;96922.59;;;19.97;70.31
13867;BME280;7003;46.982;15.248;2022-09-24T11:55:17;96925.91;;;20.44;67.07
13867;BME280;7003;46.982;15.248;2022-09-24T11:57:50;96923.19;;;20.36;65.56
13867;BME280;7003;46.982;15.248;2022-09-24T12:00:24;96922.84;;;20.34;63.92
13867;BME280;7003;46.982;15.248;2022-09-24T12:03:00;96916.53;;;19.57;66.67
13867;BME280;7003;46.982;15.248;2022-09-24T12:05:34;96908.34;;;19.82;67.18
13867;BME280;7003;46.982;15.248;2022-09-24T12:08:11;96910.16;;;20.21;71.33
13867;BME280;7003;46.982;15.248;2022-09-24T12:10:43;96907.81;;;20.26;71.44
13867;BME280;7003;46.982;15.248;2022-09-24T12:13:15;96907.56;;;19.96;70.48
13867;BME280;7003;46.982;15.248;2022-09-24T12:15:48;96907.69;;;20.55;68.20
13867;BME280;7003;46.982;15.248;2022-09-24T12:18:23;96902.75;;;20.43;70.36
13867;BME280;7003;46.982;15.248;2022-09-24T12:20:58;96906.94;;;20.47;67.63
13867;BME280;7003;46.982;15.248;2022-09-24T12:23:34;96901.03;;;21.14;70.93
13867;BME280;7003;46.982;15.248;2022-09-24T12:26:06;96910.19;;;21.35;70.77
13867;BME280;7003;46.982;15.248;2022-09-24T12:28:45;96907.28;;;21.11;65.12
13867;BME280;7003;46.982;15.248;2022-09-24T12:31:44;96897.19;;;21.16;65.48
13867;BME280;7003;46.982;15.248;2022-09-24T12:34:40;96894.09;;;21.21;66.51
13867;BME280;7003;46.982;15.248;2022-09-24T12:37:16;96898.75;;;21.17;66.55
13867;BME280;7003;46.982;15.248;2022-09-24T12:39:51;96897.19;;;21.16;65.69
13867;BME280;7003;46.982;15.248;2022-09-24T12:42:27;96895.19;;;21.27;66.17
13867;BME280;7003;46.982;15.248;2022-09-24T12:44:58;96898.13;;;21.43;63.72
13867;BME280;7003;46.982;15.248;2022-09-24T12:47:31;96890.47;;;21.72;61.60
13867;BME280;7003;46.982;15.248;2022-09-24T12:50:19;96895.72;;;21.86;62.23
13867;BME280;7003;46.982;15.248;2022-09-24T12:52:47;96891.28;;;22.06;63.14
13867;BME280;7003;46.982;15.248;2022-09-24T12:55:20;96889.53;;;21.85;62.30
13867;BME280;7003;46.982;15.248;2022-09-24T12:57:54;96885.38;;;21.43;62.54
13867;BME280;7003;46.982;15.248;2022-09-24T13:00:38;96893.97;;;21.35;61.47
13867;BME280;7003;46.982;15.248;2022-09-24T13:03:29;96893.50;;;20.95;62.05
13867;BME280;7003;46.982;15.248;2022-09-24T13:05:59;96894.94;;;21.07;66.20
13867;BME280;7003;46.982;15.248;2022-09-24T13:08:35;96897.63;;;21.07;67.68
13867;BME280;7003;46.982;15.248;2022-09-24T13:13:57;96887.56;;;20.63;61.72
13867;BME280;7003;46.982;15.248;2022-09-24T13:16:25;96887.38;;;20.84;64.60
13867;BME280;7003;46.982;15.248;2022-09-24T13:18:57;96883.69;;;20.64;64.32
13867;BME280;7003;46.982;15.248;2022-09-24T13:21:29;96881.09;;;20.46;63.45
13867;BME280;7003;46.982;15.248;2022-09-24T13:23:57;96881.31;;;20.73;65.44
13867;BME280;7003;46.982;15.248;2022-09-24T13:26:28;96880.78;;;20.30;65.51
13867;BME280;7003;46.982;15.248;2022-09-24T13:28:57;96863.19;;;20.04;64.79
13867;BME280;7003;46.982;15.248;2022-09-24T13:31:34;96864.88;;;20.46;67.51
13867;BME280;7003;46.982;15.248;2022-09-24T13:34:17;96861.50;;;20.24;68.63
13867;BME280;7003;46.982;15.248;2022-09-24T13:36:50;96856.69;;;20.60;68.69
13867;BME280;7003;46.982;15.248;2022-09-24T13:39:29;96852.91;;;20.47;69.26
13867;BME280;7003;46.982;15.248;2022-09-24T13:42:06;96846.16;;;20.11;68.06